Airport Information

KCOE - Pappy Boyington Airport

KCOE 160756Z AUTO 03013KT 10SM BKN080 M03/M07 A2996 RMK AO2 SLP188 T10331072 400001078 FZRANO


  • General Information

  • Coordinates: N 47°46'27"/ W 116°49'10"
  • Location: N/A
  • Surveyed Elevation: 2320 MSL

Operations

Flow Name Active Runways Conditions

Green background denotes normal operations.


Common Frequencies

Callsign Frequency Position Name

More at the Document Center


Charts